Time;durP1;ratioP1;P1;durP2;ratioP2;P2;SDS_P1;SDS_P2;PMS_P1;PMS_P2;Temp;Humidity;BMP_temperature;BMP_pressure;BME280_temperature;BME280_humidity;BME280_pressure;Samples;Min_cycle;Max_cycle;Signal;HPM_P1;HPM_P2
2022/05/23 00:00:12;;;;;;;2.13;1.20;;;26.00;39.20;;;;;;5142116;27;20027;-47
2022/05/23 00:02:38;;;;;;;2.70;1.30;;;26.00;39.20;;;;;;5143058;27;20015;-52
2022/05/23 00:05:06;;;;;;;2.15;1.50;;;26.00;39.20;;;;;;5140307;27;20023;-51
2022/05/23 00:07:32;;;;;;;1.58;1.10;;;26.00;39.30;;;;;;5139868;27;20071;-50
2022/05/23 00:09:59;;;;;;;2.33;1.10;;;26.00;39.30;;;;;;5140306;27;20015;-52
2022/05/23 00:12:25;;;;;;;2.08;1.17;;;26.00;39.30;;;;;;5137354;27;20034;-49
2022/05/23 00:14:51;;;;;;;3.67;1.15;;;26.00;39.40;;;;;;5139319;27;20400;-52
2022/05/23 00:17:16;;;;;;;2.92;1.38;;;26.00;39.40;;;;;;5139856;27;20042;-49
2022/05/23 00:19:42;;;;;;;1.83;1.20;;;26.00;39.40;;;;;;5138526;27;20030;-48
2022/05/23 00:22:08;;;;;;;2.00;1.20;;;26.00;39.50;;;;;;5137400;27;20042;-48
2022/05/23 00:24:34;;;;;;;2.08;1.20;;;26.00;39.50;;;;;;5136185;27;20465;-47
2022/05/23 00:27:01;;;;;;;3.75;1.48;;;26.00;39.50;;;;;;5138660;27;20377;-48
2022/05/23 00:29:27;;;;;;;2.38;1.33;;;26.00;39.60;;;;;;5138220;27;20056;-46
2022/05/23 00:37:22;;;;;;;2.05;1.27;;;26.00;39.70;;;;;;5136654;27;20034;-44
2022/05/23 00:39:47;;;;;;;2.28;1.35;;;25.90;39.80;;;;;;5137025;27;20522;-40
2022/05/23 00:45:00;;;;;;;2.47;1.27;;;25.90;39.80;;;;;;5137542;27;20038;-40
2022/05/23 00:47:27;;;;;;;2.42;1.40;;;25.90;39.90;;;;;;5137720;27;20046;-42
2022/05/23 00:49:53;;;;;;;1.40;1.20;;;25.90;39.90;;;;;;5137235;27;20544;-39
2022/05/23 00:52:38;;;;;;;4.75;1.40;;;25.90;39.90;;;;;;5137655;27;20049;-42
2022/05/23 00:55:10;;;;;;;2.00;1.25;;;25.90;40.00;;;;;;5137378;27;20098;-40
2022/05/23 00:57:40;;;;;;;2.92;1.52;;;25.90;40.00;;;;;;5136777;27;20015;-38
2022/05/23 01:00:07;;;;;;;2.92;1.35;;;25.90;40.00;;;;;;5137431;27;20160;-38
2022/05/23 01:02:32;;;;;;;2.22;1.30;;;25.90;40.10;;;;;;5138482;27;20015;-39
2022/05/23 01:04:59;;;;;;;3.40;1.90;;;25.90;40.10;;;;;;5141963;27;20489;-38
2022/05/23 01:07:26;;;;;;;2.45;1.27;;;25.90;40.10;;;;;;5140892;27;20031;-42
2022/05/23 01:09:51;;;;;;;1.92;1.25;;;25.90;40.20;;;;;;5141850;27;20041;-39
2022/05/23 01:12:17;;;;;;;1.52;1.08;;;25.90;40.20;;;;;;5142431;27;20065;-39
2022/05/23 01:14:55;;;;;;;4.38;1.27;;;25.80;40.10;;;;;;5122945;27;20015;-42
2022/05/23 01:17:26;;;;;;;2.20;1.20;;;25.90;40.80;;;;;;5139584;27;20022;-38
2022/05/23 01:19:52;;;;;;;2.67;1.40;;;25.80;40.20;;;;;;5140092;27;20023;-40
2022/05/23 01:22:23;;;;;;;3.78;1.50;;;25.80;40.30;;;;;;5139293;27;20039;-39
2022/05/23 01:24:55;;;;;;;2.35;1.40;;;25.80;40.30;;;;;;5137779;27;20007;-39
2022/05/23 01:27:21;;;;;;;2.88;1.50;;;25.80;40.30;;;;;;5139419;27;20026;-40
2022/05/23 01:29:47;;;;;;;3.42;1.40;;;25.80;40.40;;;;;;5139162;27;20408;-40
2022/05/23 01:32:13;;;;;;;2.40;1.52;;;25.80;40.50;;;;;;5138346;27;20071;-40
2022/05/23 01:34:42;;;;;;;2.70;1.65;;;25.80;40.60;;;;;;5134949;27;20110;-38
2022/05/23 01:37:07;;;;;;;2.25;1.33;;;25.80;41.10;;;;;;5135085;27;20027;-40
2022/05/23 01:39:33;;;;;;;3.20;1.30;;;25.80;40.60;;;;;;5133253;27;20030;-39
2022/05/23 01:41:59;;;;;;;4.18;1.60;;;25.80;40.70;;;;;;5134399;27;20036;-45
2022/05/23 01:44:28;;;;;;;2.20;1.48;;;25.80;40.70;;;;;;5133408;27;20023;-39
2022/05/23 01:46:53;;;;;;;2.30;1.40;;;25.80;40.80;;;;;;5134533;27;20069;-38
2022/05/23 01:49:23;;;;;;;2.92;1.33;;;25.80;40.90;;;;;;5134580;27;20019;-39
2022/05/23 01:51:49;;;;;;;2.58;1.30;;;25.80;40.80;;;;;;5134628;27;20132;-41
2022/05/23 01:54:15;;;;;;;2.70;1.30;;;25.80;41.00;;;;;;5134711;27;20031;-40
2022/05/23 01:56:41;;;;;;;1.92;1.35;;;25.80;41.00;;;;;;5134649;27;20479;-40
2022/05/23 02:01:51;;;;;;;2.83;1.58;;;25.80;41.10;;;;;;5134122;28;20064;-39
2022/05/23 02:04:17;;;;;;;2.50;1.40;;;25.70;41.10;;;;;;5136658;28;20492;-39
2022/05/23 02:06:43;;;;;;;2.75;1.70;;;25.70;41.10;;;;;;5136789;28;20102;-40
2022/05/23 02:09:08;;;;;;;2.33;1.33;;;25.80;41.20;;;;;;5137517;28;20094;-38
2022/05/23 02:11:35;;;;;;;2.90;1.60;;;25.70;41.20;;;;;;5137340;28;20090;-39
2022/05/23 02:14:02;;;;;;;3.05;1.50;;;25.80;41.30;;;;;;5137539;28;20436;-41
2022/05/23 02:16:27;;;;;;;2.33;1.30;;;25.70;41.30;;;;;;5135828;28;20058;-39
2022/05/23 02:18:54;;;;;;;4.20;1.50;;;25.80;41.40;;;;;;5138152;27;20076;-39
2022/05/23 02:21:20;;;;;;;2.45;1.48;;;25.70;41.40;;;;;;5141093;27;20039;-38
2022/05/23 02:23:46;;;;;;;1.98;1.58;;;25.70;41.40;;;;;;5140243;27;20027;-39
2022/05/23 02:26:13;;;;;;;2.25;1.60;;;25.70;41.50;;;;;;5141410;27;20035;-40
2022/05/23 02:28:39;;;;;;;3.35;1.50;;;25.70;41.50;;;;;;5141077;27;20012;-38
2022/05/23 02:31:05;;;;;;;3.38;1.42;;;25.70;41.60;;;;;;5139936;27;20427;-38
2022/05/23 02:33:31;;;;;;;2.53;1.40;;;25.70;41.70;;;;;;5138778;27;20507;-38
2022/05/23 02:35:57;;;;;;;2.15;1.67;;;25.70;41.80;;;;;;5138683;27;20026;-38
2022/05/23 02:38:23;;;;;;;1.75;1.33;;;25.70;41.90;;;;;;5138714;27;20482;-42
2022/05/23 02:40:48;;;;;;;2.03;1.40;;;25.70;41.90;;;;;;5140632;27;20042;-39
2022/05/23 02:43:14;;;;;;;1.80;1.30;;;25.70;41.90;;;;;;5138531;27;20090;-40
2022/05/23 02:45:41;;;;;;;3.75;1.58;;;25.70;42.00;;;;;;5139795;27;20027;-40
2022/05/23 02:48:07;;;;;;;3.05;1.50;;;25.70;42.10;;;;;;5139254;27;20024;-39
2022/05/23 02:50:33;;;;;;;2.55;1.48;;;25.70;42.30;;;;;;5121787;27;20088;-39
2022/05/23 02:52:58;;;;;;;2.75;1.63;;;25.70;42.20;;;;;;5139536;27;20018;-39
2022/05/23 02:55:24;;;;;;;5.88;1.70;;;25.70;42.20;;;;;;5139642;27;20102;-39
2022/05/23 02:57:53;;;;;;;3.05;1.50;;;25.70;42.20;;;;;;5139435;27;20537;-39
2022/05/23 03:00:19;;;;;;;3.60;1.40;;;25.70;42.30;;;;;;5138681;27;20023;-41
2022/05/23 03:03:03;;;;;;;4.35;1.90;;;25.70;42.30;;;;;;5139269;27;20011;-41
2022/05/23 03:05:37;;;;;;;3.08;1.50;;;25.70;42.30;;;;;;5139116;27;20030;-41
2022/05/23 03:08:09;;;;;;;4.00;1.60;;;25.70;42.40;;;;;;5139795;27;20019;-41
2022/05/23 03:10:35;;;;;;;2.05;1.35;;;25.70;42.40;;;;;;5140185;27;20007;-39
2022/05/23 03:13:02;;;;;;;3.35;1.40;;;25.70;42.50;;;;;;5140501;27;20031;-39
2022/05/23 03:15:29;;;;;;;2.05;1.30;;;25.70;42.50;;;;;;5141264;27;20015;-41
2022/05/23 03:17:55;;;;;;;4.55;1.92;;;25.60;42.50;;;;;;5141150;27;20015;-39
2022/05/23 03:20:21;;;;;;;3.13;1.50;;;25.60;42.50;;;;;;5139436;27;20034;-40
2022/05/23 03:28:16;;;;;;;2.17;1.45;;;25.60;42.60;;;;;;5140871;27;20060;-39
2022/05/23 03:30:41;;;;;;;4.85;1.73;;;25.60;42.70;;;;;;5139406;27;20056;-39
2022/05/23 03:33:07;;;;;;;2.08;1.40;;;25.60;42.70;;;;;;5139890;27;20019;-43
2022/05/23 03:35:33;;;;;;;2.65;1.40;;;25.60;42.70;;;;;;5141537;27;20377;-40
2022/05/23 03:38:00;;;;;;;2.58;1.58;;;25.60;43.30;;;;;;5140676;27;20026;-41
2022/05/23 03:40:26;;;;;;;5.60;1.90;;;25.60;42.80;;;;;;5143490;27;20015;-39
2022/05/23 03:42:53;;;;;;;2.33;1.50;;;25.60;42.80;;;;;;5142284;27;20073;-43
2022/05/23 03:45:19;;;;;;;3.33;1.60;;;25.60;42.80;;;;;;5143201;27;20007;-43
2022/05/23 03:47:46;;;;;;;3.72;1.60;;;25.60;42.80;;;;;;5122767;27;20033;-41
2022/05/23 03:50:12;;;;;;;1.90;1.40;;;25.60;43.20;;;;;;5139726;27;20050;-39
2022/05/23 03:52:38;;;;;;;2.97;1.48;;;25.60;43.00;;;;;;5137184;27;20045;-39
2022/05/23 03:55:05;;;;;;;2.72;1.60;;;25.60;43.00;;;;;;5137369;27;20031;-43
2022/05/23 03:57:30;;;;;;;4.55;1.80;;;25.60;43.00;;;;;;5137060;27;20023;-41
2022/05/23 03:59:57;;;;;;;3.15;1.55;;;25.60;43.00;;;;;;5137358;27;20111;-40
2022/05/23 04:02:23;;;;;;;3.38;1.70;;;25.60;43.10;;;;;;5138251;27;20022;-41
2022/05/23 04:04:49;;;;;;;2.97;1.60;;;25.60;43.10;;;;;;5139530;27;20015;-40
2022/05/23 04:07:15;;;;;;;3.22;1.67;;;25.60;43.10;;;;;;5139988;27;20023;-40
2022/05/23 04:09:42;;;;;;;2.20;1.27;;;25.60;43.20;;;;;;5138527;27;20031;-40
2022/05/23 04:12:07;;;;;;;3.67;1.70;;;25.60;43.20;;;;;;5138833;27;20022;-40
2022/05/23 04:14:34;;;;;;;3.10;1.60;;;25.60;43.30;;;;;;5138914;27;20028;-40
2022/05/23 04:17:00;;;;;;;3.10;1.92;;;25.60;43.20;;;;;;5137556;27;20023;-41
2022/05/23 04:19:26;;;;;;;3.78;1.58;;;25.60;43.30;;;;;;5138079;27;20053;-41
2022/05/23 04:21:52;;;;;;;2.33;1.50;;;25.60;43.30;;;;;;5139161;27;20032;-41
2022/05/23 04:24:18;;;;;;;4.13;1.92;;;25.60;43.40;;;;;;5139265;27;20018;-41
2022/05/23 04:26:44;;;;;;;4.25;1.90;;;25.60;43.40;;;;;;5138272;27;20395;-42
2022/05/23 04:29:09;;;;;;;2.92;1.92;;;25.60;43.40;;;;;;5138097;27;20053;-42
2022/05/23 04:31:35;;;;;;;3.03;1.80;;;25.50;43.30;;;;;;5119544;27;20038;-39
2022/05/23 04:36:47;;;;;;;3.13;1.60;;;25.60;43.60;;;;;;5137241;27;20046;-40
2022/05/23 04:39:13;;;;;;;4.43;1.70;;;25.50;43.40;;;;;;5135858;27;20035;-42
2022/05/23 04:41:39;;;;;;;2.83;1.77;;;25.50;43.40;;;;;;5136685;27;20465;-42
2022/05/23 04:44:07;;;;;;;4.03;1.73;;;25.50;43.40;;;;;;5137093;27;20016;-41
2022/05/23 04:46:33;;;;;;;3.45;1.80;;;25.50;44.00;;;;;;5136160;27;20480;-40
2022/05/23 04:51:43;;;;;;;2.55;1.77;;;25.50;43.30;;;;;;5136069;27;20030;-40
2022/05/23 04:54:09;;;;;;;3.08;1.70;;;25.50;43.30;;;;;;5136734;27;20382;-40
2022/05/23 04:56:37;;;;;;;3.17;1.95;;;25.60;43.40;;;;;;5137180;27;20007;-40
2022/05/23 04:59:03;;;;;;;3.65;1.80;;;25.50;43.30;;;;;;5135610;27;20035;-43
2022/05/23 05:01:32;;;;;;;4.35;2.00;;;25.50;43.30;;;;;;5137501;27;20034;-40
2022/05/23 05:03:57;;;;;;;3.63;1.60;;;25.60;43.30;;;;;;5136123;27;20012;-41
2022/05/23 05:06:24;;;;;;;3.50;1.75;;;25.50;43.20;;;;;;5136850;27;20375;-40
2022/05/23 05:08:50;;;;;;;5.10;1.90;;;25.60;43.30;;;;;;5136330;27;20059;-43
2022/05/23 05:11:16;;;;;;;4.25;1.98;;;25.60;43.20;;;;;;5137643;27;20016;-40
2022/05/23 05:13:43;;;;;;;5.57;2.00;;;25.60;43.20;;;;;;5137655;27;20020;-42
2022/05/23 05:16:09;;;;;;;4.35;2.00;;;25.60;43.20;;;;;;5136182;27;20088;-40
2022/05/23 05:18:35;;;;;;;4.03;2.03;;;25.60;43.20;;;;;;5135560;27;20549;-41
2022/05/23 05:21:05;;;;;;;3.42;2.00;;;25.60;43.20;;;;;;5137987;27;20114;-40
2022/05/23 05:23:31;;;;;;;3.78;1.88;;;25.60;43.20;;;;;;5138378;27;20007;-41
2022/05/23 05:25:57;;;;;;;3.78;1.98;;;25.50;43.10;;;;;;5119674;27;20012;-43
2022/05/23 05:28:29;;;;;;;4.07;1.80;;;25.60;43.10;;;;;;5137283;27;20051;-45
2022/05/23 05:31:02;;;;;;;3.25;2.00;;;25.60;43.10;;;;;;5139774;27;20030;-41
2022/05/23 05:33:35;;;;;;;3.65;2.10;;;25.60;43.00;;;;;;5121617;27;20034;-42
2022/05/23 05:36:09;;;;;;;3.50;1.75;;;25.60;43.00;;;;;;5136343;27;20011;-41
2022/05/23 05:39:00;;;;;;;5.75;2.00;;;25.60;43.00;;;;;;5137263;27;20011;-41
2022/05/23 05:41:41;;;;;;;3.40;1.90;;;25.60;43.00;;;;;;5136579;27;20019;-41
2022/05/23 05:44:09;;;;;;;3.33;2.08;;;25.50;42.90;;;;;;5135353;27;20011;-45
2022/05/23 05:46:41;;;;;;;3.75;2.10;;;25.60;43.00;;;;;;5135538;27;20102;-43
2022/05/23 05:49:20;;;;;;;3.10;2.13;;;25.60;43.00;;;;;;5135834;27;20018;-39
2022/05/23 05:51:47;;;;;;;7.13;2.13;;;25.60;42.90;;;;;;5135653;27;20052;-39
2022/05/23 05:54:15;;;;;;;4.95;2.05;;;25.60;42.90;;;;;;5132493;27;20118;-44
2022/05/23 05:56:43;;;;;;;5.60;2.10;;;25.60;42.90;;;;;;5134849;27;20015;-39
2022/05/23 05:59:09;;;;;;;5.38;2.20;;;25.60;43.40;;;;;;5134468;27;20470;-45
2022/05/23 06:01:35;;;;;;;2.60;1.85;;;25.60;42.80;;;;;;5134276;28;20016;-40
2022/05/23 06:04:03;;;;;;;3.63;2.20;;;25.60;42.80;;;;;;5132923;28;20012;-40
2022/05/23 06:11:59;;;;;;;4.57;2.25;;;25.60;42.70;;;;;;5134959;28;20095;-41
2022/05/23 06:14:25;;;;;;;3.70;2.08;;;25.60;42.70;;;;;;5131711;28;20558;-39
2022/05/23 06:16:51;;;;;;;5.65;2.10;;;25.60;42.70;;;;;;5133798;28;20011;-39
2022/05/23 06:19:17;;;;;;;5.05;2.20;;;25.50;42.70;;;;;;5113754;28;20055;-42
2022/05/23 06:21:43;;;;;;;4.38;2.22;;;25.60;42.70;;;;;;5129311;28;20092;-38
2022/05/23 06:24:09;;;;;;;8.80;2.78;;;25.60;42.80;;;;;;5132015;28;20038;-39
2022/05/23 06:26:34;;;;;;;8.93;2.83;;;25.50;43.60;;;;;;5132981;27;20057;-38
2022/05/23 06:29:00;;;;;;;12.90;2.75;;;25.60;47.00;;;;;;5133560;27;20011;-38
2022/05/23 06:31:26;;;;;;;13.50;2.63;;;25.60;45.80;;;;;;5133718;28;20011;-38
2022/05/23 06:33:52;;;;;;;11.65;3.15;;;25.70;46.40;;;;;;5133249;28;20026;-39
2022/05/23 06:36:18;;;;;;;12.98;3.70;;;25.80;46.40;;;;;;5133904;28;20339;-38
2022/05/23 06:38:44;;;;;;;15.95;4.15;;;25.60;45.30;;;;;;5133149;27;20076;-38
2022/05/23 06:41:11;;;;;;;13.77;4.35;;;25.40;45.40;;;;;;5132123;28;20066;-40
2022/05/23 06:43:37;;;;;;;15.55;3.90;;;25.30;45.40;;;;;;5131935;28;20007;-37
2022/05/23 06:46:05;;;;;;;12.55;4.55;;;25.30;45.60;;;;;;5131810;28;20012;-44
2022/05/23 06:48:31;;;;;;;14.93;4.03;;;25.20;45.90;;;;;;5132650;27;20015;-37
2022/05/23 06:50:57;;;;;;;10.65;4.40;;;25.10;46.60;;;;;;5131272;28;20015;-37
2022/05/23 06:53:23;;;;;;;12.38;3.92;;;25.20;46.60;;;;;;5131452;28;20015;-37
2022/05/23 06:55:49;;;;;;;7.97;3.97;;;25.20;46.20;;;;;;5132649;27;20462;-36
2022/05/23 06:58:15;;;;;;;11.38;3.80;;;25.20;46.30;;;;;;5132714;27;20041;-37
2022/05/23 07:00:41;;;;;;;8.75;3.60;;;25.20;46.60;;;;;;5132606;28;20031;-37
2022/05/23 07:03:09;;;;;;;11.70;4.03;;;25.20;46.30;;;;;;5131395;28;20003;-36
2022/05/23 07:13:52;;;;;;;24.75;4.97;;;25.10;46.60;;;;;;5133461;27;20102;-37
2022/05/23 07:16:18;;;;;;;19.48;6.45;;;24.90;47.80;;;;;;5134788;27;20098;-38
2022/05/23 07:18:45;;;;;;;29.30;6.28;;;24.80;47.90;;;;;;5133996;27;20059;-38
2022/05/23 07:21:11;;;;;;;20.75;5.75;;;24.80;48.10;;;;;;5135845;27;20058;-39
2022/05/23 07:23:37;;;;;;;16.63;5.40;;;24.90;48.00;;;;;;5134196;27;20035;-37
2022/05/23 07:26:03;;;;;;;19.70;6.03;;;25.00;47.80;;;;;;5136309;27;20008;-36
2022/05/23 07:28:32;;;;;;;14.45;5.85;;;24.80;48.90;;;;;;5136484;27;20011;-37
2022/05/23 07:30:58;;;;;;;13.85;5.30;;;24.50;50.10;;;;;;5118732;27;20068;-38
2022/05/23 07:33:24;;;;;;;11.82;4.93;;;24.50;49.90;;;;;;5136715;27;20019;-38
2022/05/23 07:35:57;;;;;;;9.57;5.00;;;24.70;49.30;;;;;;5135061;27;20018;-38
2022/05/23 07:38:23;;;;;;;13.82;5.50;;;24.60;50.00;;;;;;5134804;27;20042;-39
2022/05/23 07:40:51;;;;;;;13.35;5.07;;;24.50;50.20;;;;;;5136156;27;20143;-38
2022/05/23 07:43:17;;;;;;;13.05;4.32;;;24.50;50.10;;;;;;5136154;27;20114;-38
2022/05/23 07:45:43;;;;;;;13.88;5.45;;;24.50;50.10;;;;;;5134544;27;20133;-38
2022/05/23 07:48:09;;;;;;;13.07;4.82;;;24.60;50.30;;;;;;5134937;27;20037;-38
2022/05/23 07:50:36;;;;;;;8.40;3.97;;;24.70;50.00;;;;;;5134355;27;20465;-38
2022/05/23 08:01:17;;;;;;;14.50;4.68;;;25.10;49.20;;;;;;5134353;27;20119;-38
2022/05/23 08:03:43;;;;;;;10.60;5.10;;;25.10;48.70;;;;;;5135049;27;20477;-37
2022/05/23 08:06:09;;;;;;;12.73;4.25;;;25.00;49.00;;;;;;5116587;27;20011;-39
2022/05/23 08:08:35;;;;;;;11.05;4.75;;;24.90;48.70;;;;;;5134714;27;20026;-38
2022/05/23 08:11:01;;;;;;;10.20;4.25;;;24.90;48.40;;;;;;5133289;27;20019;-38
2022/05/23 08:13:27;;;;;;;12.40;4.50;;;25.10;48.10;;;;;;5133358;27;20106;-39
2022/05/23 08:15:53;;;;;;;11.65;4.43;;;25.20;47.70;;;;;;5132632;27;20035;-39
2022/05/23 08:18:19;;;;;;;12.45;3.47;;;25.10;46.90;;;;;;5134494;27;20031;-39
2022/05/23 08:20:44;;;;;;;29.52;4.68;;;25.10;46.80;;;;;;5134176;27;20461;-39
2022/05/23 08:23:10;;;;;;;16.80;3.47;;;24.90;48.30;;;;;;5135048;27;20481;-39
2022/05/23 08:25:39;;;;;;;22.25;5.03;;;24.90;47.40;;;;;;5133689;27;20011;-40
2022/05/23 08:28:06;;;;;;;18.27;4.07;;;24.90;48.00;;;;;;5134709;27;20011;-39
2022/05/23 08:30:32;;;;;;;10.80;3.30;;;24.90;46.20;;;;;;5135472;27;20099;-40
2022/05/23 08:32:58;;;;;;;10.73;3.13;;;25.10;46.10;;;;;;5133912;27;20019;-38
2022/05/23 08:35:24;;;;;;;11.02;3.28;;;25.10;45.40;;;;;;5117308;27;20044;-42
2022/05/23 08:37:52;;;;;;;10.43;3.10;;;25.40;45.50;;;;;;5133876;27;20054;-39
2022/05/23 08:40:17;;;;;;;7.40;3.00;;;25.40;45.50;;;;;;5117675;27;20027;-40
2022/05/23 08:42:49;;;;;;;7.93;3.35;;;25.20;45.10;;;;;;5134334;27;20016;-40
2022/05/23 08:45:23;;;;;;;9.60;3.75;;;25.30;43.80;;;;;;5135545;27;20453;-39
2022/05/23 08:47:55;;;;;;;6.45;2.92;;;25.00;44.60;;;;;;5134282;27;20011;-39
2022/05/23 08:50:26;;;;;;;6.70;3.05;;;25.40;44.70;;;;;;5135174;27;20500;-40
2022/05/23 08:53:20;;;;;;;12.52;2.75;;;25.50;44.00;;;;;;5134291;27;20015;-39
2022/05/23 08:55:53;;;;;;;5.38;2.60;;;25.80;43.60;;;;;;5113400;27;20473;-40
2022/05/23 08:58:40;;;;;;;8.70;2.92;;;26.10;43.20;;;;;;5134329;27;20018;-39
2022/05/23 09:01:15;;;;;;;4.07;2.13;;;26.30;43.10;;;;;;5135384;27;20094;-40
2022/05/23 09:04:02;;;;;;;13.85;2.50;;;26.50;42.70;;;;;;5116310;27;20015;-40
2022/05/23 09:06:31;;;;;;;6.60;3.45;;;26.40;43.20;;;;;;5134735;27;20049;-38
2022/05/23 09:09:03;;;;;;;6.80;3.00;;;25.50;44.20;;;;;;5133768;27;20437;-39
2022/05/23 09:11:35;;;;;;;5.28;2.92;;;25.30;44.10;;;;;;5133816;27;20007;-38
2022/05/23 09:14:00;;;;;;;9.95;3.42;;;25.20;44.20;;;;;;5131849;27;20102;-41
2022/05/23 09:16:51;;;;;;;7.22;2.53;;;25.20;44.50;;;;;;5132236;27;20054;-39
2022/05/23 09:19:24;;;;;;;7.18;2.45;;;25.40;44.50;;;;;;5117486;27;20030;-40
2022/05/23 09:24:55;;;;;;;11.00;2.85;;;25.30;44.10;;;;;;5132976;27;20027;-40
2022/05/23 09:27:35;;;;;;;7.35;2.83;;;25.20;44.70;;;;;;5133768;27;20068;-39
2022/05/23 09:30:05;;;;;;;6.60;3.25;;;25.40;44.80;;;;;;5132924;27;20025;-38
2022/05/23 09:32:36;;;;;;;9.02;3.28;;;25.30;45.50;;;;;;5132378;27;20067;-38
2022/05/23 09:35:24;;;;;;;11.38;4.28;;;25.40;45.60;;;;;;5133906;27;20015;-39
2022/05/23 09:38:17;;;;;;;8.32;3.92;;;25.20;46.00;;;;;;5133634;27;20025;-40
2022/05/23 09:40:43;;;;;;;10.32;3.40;;;25.40;46.10;;;;;;5133440;27;20027;-39
2022/05/23 09:49:05;;;;;;;9.88;3.65;;;25.50;46.30;;;;;;5132468;27;20026;-38
2022/05/23 09:51:32;;;;;;;7.65;3.20;;;25.40;46.10;;;;;;5134143;27;20015;-39
2022/05/23 09:54:02;;;;;;;7.38;3.20;;;25.40;46.10;;;;;;5133536;27;19999;-44
2022/05/23 09:56:29;;;;;;;8.68;3.58;;;25.30;46.00;;;;;;5132710;27;20063;-41
2022/05/23 09:58:59;;;;;;;5.60;3.97;;;25.20;46.10;;;;;;5132450;27;20029;-39
2022/05/23 10:01:26;;;;;;;7.68;3.78;;;25.00;46.60;;;;;;5134270;27;20038;-39
2022/05/23 10:03:52;;;;;;;14.95;3.47;;;24.90;47.00;;;;;;5134420;27;20024;-39
2022/05/23 10:06:18;;;;;;;16.58;3.50;;;25.00;47.10;;;;;;5134912;27;20075;-39
2022/05/23 10:08:45;;;;;;;16.63;4.10;;;25.00;47.30;;;;;;5132928;28;20029;-40
2022/05/23 10:11:31;;;;;;;11.77;3.95;;;25.10;47.90;;;;;;5133295;28;20019;-40
2022/05/23 10:13:59;;;;;;;10.95;4.40;;;25.00;47.90;;;;;;5133720;28;20015;-39
2022/05/23 10:16:27;;;;;;;9.93;3.97;;;24.90;48.50;;;;;;5133473;28;20049;-39
2022/05/23 10:19:03;;;;;;;11.25;3.47;;;24.80;48.50;;;;;;5134422;28;20019;-39
2022/05/23 10:21:34;;;;;;;11.02;4.30;;;24.90;48.40;;;;;;5134431;27;20043;-39
2022/05/23 10:24:06;;;;;;;8.43;3.20;;;24.90;48.50;;;;;;5134218;27;20015;-42
2022/05/23 10:26:36;;;;;;;9.43;3.70;;;24.90;48.50;;;;;;5134598;28;20087;-40
2022/05/23 10:29:23;;;;;;;7.03;3.30;;;24.90;48.50;;;;;;5133431;27;20007;-39
2022/05/23 10:32:10;;;;;;;11.57;3.08;;;24.80;48.60;;;;;;5133712;27;20040;-41
2022/05/23 10:34:48;;;;;;;9.60;3.20;;;24.70;49.00;;;;;;5133885;28;20007;-41
2022/05/23 10:37:20;;;;;;;9.07;3.35;;;24.80;48.90;;;;;;5134750;28;20423;-39
2022/05/23 10:42:54;;;;;;;7.38;3.10;;;24.40;50.30;;;;;;5138619;27;19911;-42
2022/05/23 10:45:26;;;;;;;13.85;3.92;;;24.70;49.70;;;;;;5138222;27;20095;-39
2022/05/23 10:47:59;;;;;;;13.45;3.75;;;24.60;50.00;;;;;;5136800;27;20496;-39
2022/05/23 10:50:34;;;;;;;27.67;5.28;;;24.40;51.30;;;;;;5137068;27;20082;-39
2022/05/23 10:53:27;;;;;;;26.05;4.47;;;24.40;52.20;;;;;;5135816;27;20015;-38
2022/05/23 10:56:02;;;;;;;29.77;4.47;;;24.50;53.70;;;;;;5136786;27;20027;-38
2022/05/23 10:58:37;;;;;;;22.48;4.22;;;24.80;52.60;;;;;;5136508;27;20034;-37
2022/05/23 11:01:53;;;;;;;20.85;3.95;;;25.10;52.70;;;;;;5118431;27;20027;-38
2022/05/23 11:04:57;;;;;;;17.02;4.18;;;25.20;51.80;;;;;;5052399;28;20120;-38
2022/05/23 11:08:01;;;;;;;9.65;3.58;;;25.20;50.60;;;;;;4992943;28;20034;-38
2022/05/23 11:10:30;;;;;;;10.43;3.25;;;25.20;49.90;;;;;;4993274;28;20034;-39
2022/05/23 11:13:24;;;;;;;12.07;3.00;;;25.20;50.10;;;;;;4992864;28;20135;-41
2022/05/23 11:16:29;;;;;;;10.98;3.03;;;25.30;51.10;;;;;;4991217;28;20046;-38
2022/05/23 11:19:24;;;;;;;6.70;2.97;;;25.40;50.00;;;;;;4915923;29;20040;-39
2022/05/23 11:21:58;;;;;;;8.48;2.90;;;25.40;48.70;;;;;;4915291;29;20048;-39
2022/05/23 11:24:33;;;;;;;11.93;3.58;;;25.40;48.50;;;;;;4915718;29;20036;-39
2022/05/23 11:35:23;;;;;;;10.10;2.60;;;25.60;48.50;;;;;;4916206;29;20098;-40
2022/05/23 11:37:49;;;;;;;;;;;25.60;47.80;;;;;;4929459;29;20530;-40
2022/05/23 11:40:30;;;;;;;21.30;3.58;;;25.50;48.10;;;;;;4986500;28;20011;-40
2022/05/23 11:43:01;;;;;;;21.25;4.07;;;25.20;49.50;;;;;;5032447;28;20074;-40
2022/05/23 11:48:34;;;;;;;32.55;3.60;;;24.90;52.10;;;;;;5033001;28;20068;-47
2022/05/23 11:51:24;;;;;;;20.50;4.03;;;24.80;53.00;;;;;;5135306;27;20015;-41
2022/05/23 11:54:01;;;;;;;18.55;4.40;;;25.00;53.70;;;;;;5135856;27;20045;-40
2022/05/23 11:56:42;;;;;;;18.83;4.80;;;24.60;57.20;;;;;;5135037;27;20023;-40
2022/05/23 11:59:24;;;;;;;14.80;4.53;;;24.20;58.70;;;;;;5136330;27;20030;-39
2022/05/23 12:02:10;;;;;;;14.25;3.83;;;24.30;58.40;;;;;;5135984;27;20026;-39
2022/05/23 12:04:56;;;;;;;15.43;4.72;;;24.80;57.60;;;;;;5135991;27;20034;-40
2022/05/23 12:07:31;;;;;;;9.55;3.72;;;24.80;57.30;;;;;;5136193;27;20022;-39
2022/05/23 12:10:25;;;;;;;14.63;4.47;;;24.90;57.60;;;;;;5136047;27;20080;-39
2022/05/23 12:12:54;;;;;;;8.05;3.55;;;25.10;57.00;;;;;;5135683;27;20030;-39
2022/05/23 12:15:53;;;;;;;12.75;3.65;;;25.00;56.60;;;;;;5135497;27;20019;-39
2022/05/23 12:18:22;;;;;;;12.57;3.63;;;25.10;56.60;;;;;;5051632;28;20033;-39
2022/05/23 12:20:49;;;;;;;7.65;3.30;;;25.00;56.20;;;;;;5051622;28;20042;-39
2022/05/23 12:23:47;;;;;;;7.70;3.63;;;24.40;57.60;;;;;;5034943;28;20029;-37
2022/05/23 12:26:13;;;;;;;6.68;3.40;;;23.90;58.70;;;;;;5051850;28;20016;-39
2022/05/23 12:28:57;;;;;;;18.83;4.30;;;23.60;60.10;;;;;;5051083;28;20095;-45
2022/05/23 12:31:33;;;;;;;24.40;4.45;;;23.90;59.70;;;;;;5018248;28;20103;-39
2022/05/23 12:34:07;;;;;;;25.38;5.28;;;23.80;61.40;;;;;;5035200;28;20033;-39
2022/05/23 12:36:39;;;;;;;20.20;5.20;;;23.50;62.30;;;;;;5050816;28;20040;-41
2022/05/23 12:39:36;;;;;;;20.50;5.60;;;23.40;63.30;;;;;;5034270;28;20112;-41
2022/05/23 12:42:05;;;;;;;15.88;6.32;;;23.50;63.60;;;;;;5051036;28;20056;-40
2022/05/23 12:44:48;;;;;;;12.23;5.45;;;23.40;63.40;;;;;;5051558;28;20058;-40
2022/05/23 12:47:25;;;;;;;10.13;6.03;;;23.50;63.20;;;;;;5018951;28;20025;-39
2022/05/23 12:50:13;;;;;;;13.27;6.80;;;23.40;63.10;;;;;;5051615;28;20028;-39
2022/05/23 12:53:01;;;;;;;12.35;7.15;;;23.30;63.20;;;;;;5051390;28;20031;-39
2022/05/23 12:55:52;;;;;;;12.25;6.75;;;23.20;64.10;;;;;;5133191;27;20011;-39
2022/05/23 12:58:30;;;;;;;13.30;8.10;;;23.30;64.60;;;;;;5134440;27;20011;-39
2022/05/23 13:01:08;;;;;;;12.10;9.45;;;23.20;65.00;;;;;;5133274;27;20027;-37
2022/05/23 13:04:01;;;;;;;17.00;10.55;;;23.00;65.90;;;;;;5132866;27;20037;-38
2022/05/23 13:06:31;;;;;;;17.58;11.70;;;23.10;65.30;;;;;;5133419;27;20063;-38
2022/05/23 13:09:04;;;;;;;18.17;14.20;;;23.30;64.90;;;;;;5134762;27;20008;-43
2022/05/23 13:11:38;;;;;;;21.40;17.02;;;23.20;65.40;;;;;;5115304;27;20123;-40
2022/05/23 13:14:04;;;;;;;22.20;18.90;;;23.10;65.20;;;;;;5132386;27;20011;-36
2022/05/23 13:16:32;;;;;;;24.80;19.20;;;22.90;65.70;;;;;;5131610;27;20015;-39
2022/05/23 13:22:17;;;;;;;30.48;15.38;;;23.00;65.70;;;;;;5135906;27;20053;-40
2022/05/23 13:24:54;;;;;;;28.15;14.70;;;23.60;63.70;;;;;;5119983;27;20015;-39
2022/05/23 13:27:28;;;;;;;28.90;13.73;;;24.00;61.90;;;;;;5136483;27;20100;-39
2022/05/23 13:30:01;;;;;;;18.92;12.07;;;24.30;60.80;;;;;;5138294;27;20023;-39
2022/05/23 13:32:28;;;;;;;27.58;11.88;;;24.50;59.80;;;;;;5136799;27;20021;-40
2022/05/23 13:34:55;;;;;;;21.77;10.85;;;24.70;59.30;;;;;;5137070;27;20047;-40
2022/05/23 13:37:35;;;;;;;22.92;11.10;;;24.80;58.80;;;;;;5134814;27;20110;-40
2022/05/23 13:40:10;;;;;;;18.85;9.82;;;24.90;58.40;;;;;;5136802;27;20023;-42
2022/05/23 13:42:36;;;;;;;18.77;9.75;;;25.00;58.20;;;;;;5137882;27;20019;-40
2022/05/23 13:45:20;;;;;;;22.10;8.38;;;25.00;58.00;;;;;;5137399;27;20018;-43
2022/05/23 13:47:51;;;;;;;13.50;8.85;;;25.10;57.90;;;;;;5136724;27;20027;-46
2022/05/23 13:50:20;;;;;;;17.50;8.98;;;25.10;57.70;;;;;;5135755;27;20457;-41
2022/05/23 13:52:52;;;;;;;15.27;8.27;;;25.10;57.60;;;;;;5137287;27;20481;-45
2022/05/23 13:55:34;;;;;;;19.50;8.60;;;25.10;57.20;;;;;;5119685;28;20537;-41
2022/05/23 13:58:02;;;;;;;17.40;7.97;;;25.20;57.40;;;;;;5119367;27;20149;-41
2022/05/23 14:00:35;;;;;;;18.55;7.60;;;25.20;57.40;;;;;;5135886;27;20019;-40
2022/05/23 14:03:09;;;;;;;18.27;7.63;;;25.20;57.50;;;;;;5136016;28;20098;-42
2022/05/23 14:05:36;;;;;;;15.05;7.30;;;25.20;57.50;;;;;;5137385;27;20003;-45
2022/05/23 14:08:02;;;;;;;12.82;7.00;;;25.20;57.10;;;;;;5137093;27;20015;-41
2022/05/23 14:10:31;;;;;;;16.55;7.28;;;25.20;57.10;;;;;;5138257;27;20038;-41